Hlavní strana
METAR-TAF:

METAR-TAF

Letiště :

Hermosillo, Mexiko

zeměpisná šířka: 29-04N, zeměpisná délka: 110-57W, výška: 211 m

Aktuální stav počasí

Zpráva byla vytvořena před 48 minutami, v 13:40 UTC
Bezvětří
Teplota 10°C
Vlhkost vzduchu 82%
Tlak 1019 hPa
Viditelnost: 16.1 km
Jasno

METAR: MMHO 281340Z 00000KT 10SM SKC 10/07 A3009 RMK HZY

Čas: 07:28 (14:28 UTC)

Předpověď počasí

Zpráva byla vytvořena před 9 hodinami a 12 minutami, v 05:16 UTC
Předpověď platná od 28 v 06 UTC do 29 v 06 UTC
Západoseverozápadní vítr 5 kt
Viditelnost: 10 km
Jasno
Od 28 v 1900 UTC
Západoseverozápadní vítr 12 kt
Viditelnost: 10 km
Jasno
Od 29 v 0200 UTC
Západoseverozápadní vítr 5 kt
Viditelnost: 10 km
Jasno

TAF: MMHO 280516Z 2806/2906 30005KT P6SM SKC FM281900 30012KT P6SM SKC FM290200 30005KT P6SM SKC

Stav a předpovědi počasí z více než 4 000 letišť (zprávy METAR a TAF).

Červené a žluté tečky na mapě představují dostupné meteorologické stanice.

Když kurzor umístíte na tečku, zobrazí se název stanice.

Pak kliknutím zobrazíte stav a předpověď počasí.

Chcete-li změnit mapu, kliknutím na zelené tlačítko se znaménkem +mapu přiblížíte, kliknutím na zelené tlačítko se znaménkem – mapu oddálíte a kliknutím na zelené šipky přejdete na sousední mapy.


METAR-TAF: